Time;durP1;ratioP1;P1;durP2;ratioP2;P2;SDS_P1;SDS_P2;PMS_P1;PMS_P2;Temp;Humidity;BMP_temperature;BMP_pressure;BME280_temperature;BME280_humidity;BME280_pressure;Samples;Min_cycle;Max_cycle;Signal;HPM_P1;HPM_P2
2023/06/20 00:01:20;;;;;;;12.65;9.77;;;16.90;99.90;;;;;;5036586;28;20033;-71
2023/06/20 00:03:45;;;;;;;16.50;10.10;;;16.90;99.90;;;;;;5036428;28;20438;-71
2023/06/20 00:06:11;;;;;;;11.30;9.60;;;16.90;99.90;;;;;;5053756;28;20020;-71
2023/06/20 00:08:37;;;;;;;11.48;9.52;;;16.90;99.90;;;;;;5036087;28;20025;-71
2023/06/20 00:11:03;;;;;;;19.13;10.73;;;16.90;99.90;;;;;;5053432;28;20034;-71
2023/06/20 00:13:28;;;;;;;11.38;9.65;;;16.80;99.90;;;;;;5035839;28;20060;-71
2023/06/20 00:15:57;;;;;;;12.90;9.65;;;16.80;99.90;;;;;;5053338;28;20457;-70
2023/06/20 00:18:23;;;;;;;10.32;9.35;;;16.80;99.90;;;;;;5035757;28;20105;-70
2023/06/20 00:20:49;;;;;;;14.70;9.52;;;16.80;99.90;;;;;;5035744;28;20029;-70
2023/06/20 00:23:16;;;;;;;10.50;9.38;;;16.80;99.90;;;;;;5053474;28;20095;-71
2023/06/20 00:25:41;;;;;;;10.15;8.85;;;16.70;99.90;;;;;;5053532;28;20060;-70
2023/06/20 00:28:09;;;;;;;12.00;10.30;;;;;;;;;;5053589;28;20056;-70
2023/06/20 00:30:35;;;;;;;14.40;9.88;;;16.70;99.90;;;;;;5053380;28;20027;-70
2023/06/20 00:33:01;;;;;;;10.30;9.20;;;16.60;99.90;;;;;;5053519;28;20107;-71
2023/06/20 00:35:26;;;;;;;14.05;10.25;;;16.60;99.90;;;;;;5035689;28;20025;-71
2023/06/20 00:37:52;;;;;;;11.57;9.73;;;16.60;99.90;;;;;;5035713;28;20021;-71
2023/06/20 00:40:18;;;;;;;12.68;9.88;;;16.60;99.90;;;;;;5055725;28;20087;-71
2023/06/20 00:42:45;;;;;;;11.07;9.70;;;16.60;99.90;;;;;;5039487;28;20480;-71
2023/06/20 00:45:32;;;;;;;14.98;10.70;;;16.60;99.90;;;;;;5057312;28;20033;-71
2023/06/20 00:47:59;;;;;;;12.52;10.48;;;16.60;99.90;;;;;;5057116;28;20495;-71
2023/06/20 00:50:27;;;;;;;12.32;10.18;;;16.50;99.90;;;;;;5070637;28;20045;-71
2023/06/20 00:53:12;;;;;;;15.20;9.98;;;16.50;99.90;;;;;;5077220;28;20029;-71
2023/06/20 00:55:38;;;;;;;13.05;10.32;;;16.50;99.90;;;;;;5077409;28;20024;-71
2023/06/20 00:58:04;;;;;;;13.18;9.73;;;16.50;99.90;;;;;;5077096;28;20028;-71
2023/06/20 01:00:32;;;;;;;17.10;10.60;;;16.50;99.90;;;;;;5077049;28;20107;-71
2023/06/20 01:03:16;;;;;;;11.88;10.55;;;16.50;99.90;;;;;;5076981;28;20028;-71
2023/06/20 01:05:46;;;;;;;11.25;10.05;;;16.50;99.90;;;;;;5076233;28;20116;-71
2023/06/20 01:08:27;;;;;;;11.55;9.63;;;16.50;99.90;;;;;;5076763;28;20028;-71
2023/06/20 01:11:20;;;;;;;15.57;10.75;;;16.50;99.90;;;;;;5076783;28;20365;-71
2023/06/20 01:13:48;;;;;;;14.63;10.18;;;16.50;99.90;;;;;;5076810;28;20514;-71
2023/06/20 01:16:14;;;;;;;12.53;9.80;;;16.40;99.90;;;;;;5076771;28;20071;-71
2023/06/20 01:18:54;;;;;;;13.85;10.45;;;16.40;99.90;;;;;;5076575;28;20065;-71
2023/06/20 01:21:29;;;;;;;12.85;10.70;;;16.40;99.90;;;;;;5075440;28;20029;-71
2023/06/20 01:24:19;;;;;;;17.92;11.88;;;16.30;99.90;;;;;;5075808;28;20021;-71
2023/06/20 01:26:50;;;;;;;11.48;9.77;;;16.30;99.90;;;;;;5077227;28;20032;-71
2023/06/20 01:29:27;;;;;;;14.43;10.05;;;16.30;99.90;;;;;;5075286;28;20484;-71
2023/06/20 01:32:00;;;;;;;14.07;9.93;;;16.30;99.90;;;;;;5076461;28;20024;-71
2023/06/20 01:34:28;;;;;;;12.27;9.75;;;16.20;99.90;;;;;;5076548;28;20086;-71
2023/06/20 01:36:58;;;;;;;14.38;10.18;;;16.30;99.90;;;;;;5076347;28;20104;-71
2023/06/20 01:39:28;;;;;;;11.10;9.77;;;16.30;99.90;;;;;;5076405;28;20104;-71
2023/06/20 01:41:57;;;;;;;13.55;10.77;;;16.20;99.90;;;;;;5076250;28;20380;-71
2023/06/20 01:44:26;;;;;;;13.95;10.07;;;16.20;99.90;;;;;;5076246;28;20036;-70
2023/06/20 01:46:56;;;;;;;12.20;10.45;;;16.20;99.90;;;;;;5074966;28;20024;-71
2023/06/20 01:49:23;;;;;;;13.27;10.65;;;16.20;99.90;;;;;;5067433;28;20381;-71
2023/06/20 01:51:55;;;;;;;14.32;11.30;;;16.10;99.90;;;;;;5054711;28;20420;-71
2023/06/20 01:54:27;;;;;;;16.58;10.70;;;16.20;99.90;;;;;;5056045;28;20029;-71
2023/06/20 01:56:54;;;;;;;15.05;11.30;;;16.10;99.90;;;;;;5056006;28;20480;-71
2023/06/20 01:59:20;;;;;;;14.05;10.65;;;16.10;99.90;;;;;;5037744;28;20027;-71
2023/06/20 02:01:48;;;;;;;13.88;10.68;;;16.10;99.90;;;;;;5056204;28;20060;-71
2023/06/20 02:04:16;;;;;;;11.63;10.07;;;16.10;99.90;;;;;;5055629;28;20427;-71
2023/06/20 02:06:44;;;;;;;13.30;10.38;;;16.10;99.90;;;;;;5055874;28;20017;-71
2023/06/20 02:09:10;;;;;;;15.07;11.98;;;16.10;99.90;;;;;;5055790;28;20064;-71
2023/06/20 02:11:36;;;;;;;16.58;11.23;;;16.10;99.90;;;;;;5037512;28;20025;-71
2023/06/20 02:14:03;;;;;;;13.75;10.90;;;16.10;99.90;;;;;;5055654;28;20032;-71
2023/06/20 02:16:30;;;;;;;13.32;11.18;;;16.10;99.90;;;;;;5037665;28;20029;-71
2023/06/20 02:18:56;;;;;;;18.88;11.15;;;16.10;99.90;;;;;;5055330;28;20021;-71
2023/06/20 02:21:27;;;;;;;13.48;11.15;;;16.10;99.90;;;;;;5037664;28;20082;-71
2023/06/20 02:23:55;;;;;;;13.63;11.15;;;16.10;99.90;;;;;;5055352;28;20017;-71
2023/06/20 02:26:28;;;;;;;15.65;11.60;;;16.10;99.90;;;;;;5055787;28;20480;-71
2023/06/20 02:28:59;;;;;;;15.35;11.38;;;16.10;99.90;;;;;;5037519;28;20029;-70
2023/06/20 02:31:28;;;;;;;13.73;11.82;;;16.10;99.90;;;;;;5055344;28;20033;-71
2023/06/20 02:33:56;;;;;;;;;;;16.10;99.90;;;;;;5055741;28;20033;-71
2023/06/20 02:36:25;;;;;;;15.32;11.30;;;16.10;99.90;;;;;;5054916;28;20333;-71
2023/06/20 02:38:52;;;;;;;;;;;16.10;99.90;;;;;;5055636;28;20028;-71
2023/06/20 02:41:19;;;;;;;15.00;11.88;;;16.20;99.90;;;;;;5055125;28;19951;-71
2023/06/20 02:43:45;;;;;;;14.00;11.73;;;16.20;99.90;;;;;;5055108;28;20021;-71
2023/06/20 02:46:29;;;;;;;12.80;11.43;;;16.20;99.90;;;;;;5037835;28;20036;-71
2023/06/20 02:49:19;;;;;;;13.77;10.35;;;16.10;99.90;;;;;;5055134;28;20053;-71
2023/06/20 02:52:10;;;;;;;13.38;11.98;;;16.10;99.90;;;;;;5037095;28;20036;-71
2023/06/20 02:54:58;;;;;;;18.08;11.90;;;16.10;99.90;;;;;;5036756;28;20078;-71
2023/06/20 02:57:25;;;;;;;17.02;12.82;;;16.10;99.90;;;;;;5054801;28;20047;-71
2023/06/20 02:59:58;;;;;;;14.55;12.77;;;16.10;99.90;;;;;;5054453;28;20025;-71
2023/06/20 03:02:29;;;;;;;16.50;13.48;;;16.10;99.90;;;;;;5054557;28;20029;-71
2023/06/20 03:05:00;;;;;;;15.05;12.50;;;16.10;99.90;;;;;;5055042;28;20021;-71
2023/06/20 03:07:34;;;;;;;18.10;12.50;;;16.20;99.90;;;;;;5054871;28;20159;-71
2023/06/20 03:10:03;;;;;;;12.93;11.45;;;16.20;99.90;;;;;;5055062;28;20033;-71
2023/06/20 03:12:30;;;;;;;14.45;11.88;;;16.20;99.90;;;;;;5054204;28;20474;-72
2023/06/20 03:14:55;;;;;;;15.15;11.10;;;16.30;99.90;;;;;;5054572;28;20411;-71
2023/06/20 03:17:21;;;;;;;14.35;11.60;;;16.30;99.90;;;;;;5054169;28;20070;-71
2023/06/20 03:19:46;;;;;;;17.75;12.10;;;16.30;99.90;;;;;;5036595;28;20025;-71
2023/06/20 03:22:12;;;;;;;16.20;12.05;;;16.30;99.90;;;;;;5054574;28;20025;-71
2023/06/20 03:24:38;;;;;;;13.55;11.65;;;16.30;99.90;;;;;;5054077;28;20051;-71
2023/06/20 03:27:03;;;;;;;13.13;11.50;;;16.40;99.90;;;;;;5054715;28;20381;-71
2023/06/20 03:29:29;;;;;;;18.25;13.07;;;16.40;99.90;;;;;;5036262;28;20029;-71
2023/06/20 03:31:55;;;;;;;14.23;11.15;;;16.40;99.90;;;;;;5054124;28;20033;-71
2023/06/20 03:34:20;;;;;;;14.55;12.02;;;16.40;99.90;;;;;;5053849;28;20025;-71
2023/06/20 03:36:46;;;;;;;15.93;11.38;;;16.40;99.90;;;;;;5054310;28;20032;-71
2023/06/20 03:39:12;;;;;;;13.60;11.55;;;16.50;99.90;;;;;;5054054;28;20025;-71
2023/06/20 03:41:37;;;;;;;16.38;12.02;;;16.50;99.90;;;;;;5054048;28;20078;-72
2023/06/20 03:44:03;;;;;;;15.63;11.82;;;16.60;99.90;;;;;;5054225;28;20021;-71
2023/06/20 03:46:28;;;;;;;16.65;11.82;;;16.70;99.90;;;;;;5054423;28;20025;-71
2023/06/20 03:48:54;;;;;;;14.00;11.82;;;16.70;99.90;;;;;;5053750;28;20049;-71
2023/06/20 03:51:20;;;;;;;14.00;10.98;;;16.80;99.90;;;;;;5035956;28;20542;-71
2023/06/20 03:53:45;;;;;;;18.33;12.18;;;16.80;99.90;;;;;;5053914;28;20029;-71
2023/06/20 03:56:11;;;;;;;13.80;11.13;;;16.80;99.90;;;;;;5053454;28;20029;-70
2023/06/20 03:58:37;;;;;;;15.40;11.30;;;16.90;99.90;;;;;;5053784;28;20033;-71
2023/06/20 04:01:02;;;;;;;15.18;10.80;;;16.90;99.90;;;;;;5053804;28;20043;-71
2023/06/20 04:03:28;;;;;;;14.02;11.13;;;16.90;99.90;;;;;;5053543;28;20126;-75
2023/06/20 04:05:54;;;;;;;15.05;10.45;;;17.00;99.90;;;;;;5053682;28;20021;-75
2023/06/20 04:08:21;;;;;;;17.63;11.27;;;17.10;99.90;;;;;;5053440;28;20060;-75
2023/06/20 04:10:46;;;;;;;15.18;11.27;;;17.10;99.90;;;;;;5035744;28;20029;-74
2023/06/20 04:13:12;;;;;;;13.88;10.80;;;17.20;99.90;;;;;;5035914;28;20032;-76
2023/06/20 04:15:38;;;;;;;14.55;11.73;;;17.30;99.90;;;;;;5053393;28;20102;-62
2023/06/20 04:18:03;;;;;;;14.60;10.80;;;17.40;99.90;;;;;;5053270;28;20099;-64
2023/06/20 04:20:29;;;;;;;15.57;11.73;;;17.50;99.90;;;;;;5035660;28;20524;-64
2023/06/20 04:22:55;;;;;;;13.10;11.07;;;17.60;99.90;;;;;;5035655;28;20025;-64
2023/06/20 04:25:21;;;;;;;12.68;11.25;;;17.70;99.90;;;;;;5053219;28;20017;-70
2023/06/20 04:27:53;;;;;;;14.90;11.30;;;17.70;99.90;;;;;;5053849;28;20033;-70
2023/06/20 04:30:19;;;;;;;12.25;10.90;;;17.80;99.90;;;;;;5035808;28;20102;-70
2023/06/20 04:32:45;;;;;;;16.63;11.35;;;17.80;99.90;;;;;;5053402;28;20061;-71
2023/06/20 04:35:10;;;;;;;13.13;11.32;;;17.90;99.90;;;;;;5035584;28;20457;-71
2023/06/20 04:37:36;;;;;;;15.48;10.63;;;18.00;99.90;;;;;;5053455;28;20083;-70
2023/06/20 04:40:05;;;;;;;14.70;11.35;;;18.10;99.90;;;;;;5035513;28;20032;-71
2023/06/20 04:42:30;;;;;;;15.88;11.95;;;18.20;99.90;;;;;;5053336;28;20071;-71
2023/06/20 04:44:56;;;;;;;15.32;11.57;;;18.40;99.90;;;;;;5035463;28;20033;-73
2023/06/20 04:47:21;;;;;;;13.73;11.35;;;18.50;99.90;;;;;;5035492;28;20030;-72
2023/06/20 04:49:47;;;;;;;16.30;11.55;;;18.70;99.90;;;;;;5052877;28;20045;-71
2023/06/20 04:52:13;;;;;;;14.00;11.68;;;18.90;99.90;;;;;;5035270;28;20487;-71
2023/06/20 04:54:38;;;;;;;16.85;10.93;;;19.00;99.90;;;;;;5035765;28;20029;-71
2023/06/20 04:57:04;;;;;;;18.13;11.48;;;19.10;99.90;;;;;;5053380;28;20377;-71
2023/06/20 04:59:30;;;;;;;15.25;11.02;;;19.20;99.90;;;;;;5035207;28;20056;-71
2023/06/20 05:01:55;;;;;;;15.50;11.75;;;19.30;99.90;;;;;;5052812;28;20037;-71
2023/06/20 05:04:21;;;;;;;15.60;11.48;;;19.40;99.90;;;;;;5053149;28;20457;-71
2023/06/20 05:06:47;;;;;;;17.80;11.98;;;19.50;99.90;;;;;;5052612;28;20025;-71
2023/06/20 05:09:13;;;;;;;13.48;11.50;;;19.60;99.90;;;;;;5034968;28;20029;-71
2023/06/20 05:11:39;;;;;;;18.75;11.20;;;19.60;99.90;;;;;;5052560;28;20043;-71
2023/06/20 05:14:05;;;;;;;17.08;12.10;;;19.70;99.90;;;;;;5034991;28;20078;-72
2023/06/20 05:16:30;;;;;;;16.25;11.85;;;19.80;99.90;;;;;;5052940;28;20041;-72
2023/06/20 05:18:56;;;;;;;16.52;11.77;;;19.90;99.90;;;;;;5052902;28;20099;-72
2023/06/20 05:21:22;;;;;;;16.80;11.52;;;20.10;99.90;;;;;;5035049;28;20060;-72
2023/06/20 05:23:47;;;;;;;13.65;11.30;;;20.20;99.90;;;;;;5053135;28;20499;-71
2023/06/20 05:26:13;;;;;;;13.80;11.50;;;20.40;99.90;;;;;;5035360;28;20025;-72
2023/06/20 05:28:38;;;;;;;14.75;11.23;;;20.60;99.90;;;;;;5056416;28;20384;-71
2023/06/20 05:31:04;;;;;;;12.98;10.77;;;20.70;99.90;;;;;;5038425;28;20029;-72
2023/06/20 05:33:30;;;;;;;12.75;11.30;;;20.80;99.90;;;;;;5056457;28;20021;-71
2023/06/20 05:35:57;;;;;;;11.68;10.43;;;21.00;99.90;;;;;;5038610;28;20032;-71
2023/06/20 05:38:23;;;;;;;12.70;10.75;;;21.10;99.90;;;;;;5056305;28;20368;-71
2023/06/20 05:40:49;;;;;;;17.45;9.98;;;21.20;99.90;;;;;;5038098;28;20025;-71
2023/06/20 05:43:14;;;;;;;14.07;10.43;;;21.40;99.90;;;;;;5038381;28;20032;-71
2023/06/20 05:45:40;;;;;;;14.82;10.23;;;21.50;99.90;;;;;;5056100;28;20029;-71
2023/06/20 05:48:08;;;;;;;13.93;10.73;;;21.70;99.90;;;;;;5038276;28;20056;-71
2023/06/20 05:50:35;;;;;;;17.40;9.93;;;21.80;99.90;;;;;;5071687;28;20044;-71
2023/06/20 05:53:00;;;;;;;12.15;10.18;;;21.90;99.90;;;;;;5074694;28;20434;-71
2023/06/20 05:55:26;;;;;;;11.95;9.95;;;22.00;99.90;;;;;;5074740;28;20028;-71
2023/06/20 05:57:52;;;;;;;15.15;9.70;;;22.10;99.90;;;;;;5075699;28;20028;-71
2023/06/20 06:00:18;;;;;;;11.70;10.10;;;22.20;99.90;;;;;;5075992;28;20021;-71
2023/06/20 06:02:46;;;;;;;14.68;9.70;;;22.30;99.90;;;;;;5074633;28;20033;-71
2023/06/20 06:05:12;;;;;;;12.20;9.95;;;22.50;99.90;;;;;;5074576;28;20031;-71
2023/06/20 06:07:38;;;;;;;12.25;10.13;;;22.60;99.90;;;;;;5076028;28;20103;-71
2023/06/20 06:10:10;;;;;;;13.65;9.80;;;22.70;99.90;;;;;;5075817;28;20031;-71
2023/06/20 06:12:36;;;;;;;11.15;9.93;;;22.70;99.90;;;;;;5074332;28;20111;-71
2023/06/20 06:15:03;;;;;;;14.05;9.50;;;22.80;99.90;;;;;;5075890;28;20059;-71
2023/06/20 06:17:30;;;;;;;12.60;9.45;;;23.00;99.90;;;;;;5075630;28;20084;-71
2023/06/20 06:19:56;;;;;;;12.77;8.85;;;23.20;99.90;;;;;;5075563;28;20154;-71
2023/06/20 06:22:22;;;;;;;12.55;9.63;;;23.60;99.90;;;;;;5075303;28;20039;-71
2023/06/20 06:24:48;;;;;;;11.95;8.60;;;24.10;99.90;;;;;;5075859;28;20029;-71
2023/06/20 06:27:13;;;;;;;10.10;9.07;;;24.60;99.90;;;;;;5075103;28;20461;-69
2023/06/20 06:29:39;;;;;;;10.20;8.57;;;25.00;99.90;;;;;;5074059;28;20032;-70
2023/06/20 06:32:06;;;;;;;9.20;7.95;;;25.30;99.90;;;;;;5075244;28;20032;-72
2023/06/20 06:34:33;;;;;;;10.52;8.90;;;25.70;99.00;;;;;;5075317;28;20041;-72
2023/06/20 06:36:59;;;;;;;12.98;7.90;;;25.90;98.00;;;;;;5073781;28;20028;-72
2023/06/20 06:39:25;;;;;;;9.73;8.00;;;25.90;97.70;;;;;;5075021;28;20024;-72
2023/06/20 06:41:51;;;;;;;9.38;8.35;;;26.10;97.30;;;;;;5073823;28;20453;-72
2023/06/20 06:44:18;;;;;;;12.63;8.50;;;26.10;96.30;;;;;;5073811;28;20086;-72
2023/06/20 06:46:44;;;;;;;11.23;7.43;;;26.20;96.10;;;;;;5075289;28;20426;-72
2023/06/20 06:49:10;;;;;;;13.65;7.47;;;26.40;95.70;;;;;;5073422;28;20056;-73
2023/06/20 06:51:38;;;;;;;9.60;7.43;;;26.70;95.30;;;;;;5074805;28;20036;-73
2023/06/20 06:54:04;;;;;;;8.07;7.32;;;26.70;94.70;;;;;;5073630;28;20025;-73
2023/06/20 06:56:29;;;;;;;15.70;7.38;;;26.80;94.00;;;;;;5073567;28;20035;-73
2023/06/20 06:58:57;;;;;;;8.25;7.55;;;27.10;94.00;;;;;;5073587;28;20089;-73
2023/06/20 07:01:24;;;;;;;11.35;8.13;;;27.30;93.00;;;;;;5074757;28;20428;-73
2023/06/20 07:03:49;;;;;;;10.95;7.22;;;27.20;92.80;;;;;;5073735;28;20029;-73
2023/06/20 07:06:15;;;;;;;9.45;7.63;;;27.20;93.10;;;;;;5073022;28;20034;-73
2023/06/20 07:08:41;;;;;;;10.63;7.60;;;27.30;92.40;;;;;;5073278;28;20036;-73
2023/06/20 07:11:06;;;;;;;12.30;7.63;;;27.30;92.40;;;;;;5073328;28;20021;-72
2023/06/20 07:13:32;;;;;;;10.60;7.25;;;27.40;92.30;;;;;;5074162;28;20112;-73
2023/06/20 07:15:58;;;;;;;8.27;7.38;;;27.60;91.90;;;;;;5074729;28;20064;-73
2023/06/20 07:18:24;;;;;;;15.98;7.35;;;27.90;91.70;;;;;;5073022;28;20031;-72
2023/06/20 07:20:49;;;;;;;9.73;7.50;;;28.10;91.70;;;;;;5073001;28;20024;-73
2023/06/20 07:23:15;;;;;;;7.95;7.15;;;28.00;91.00;;;;;;5074379;28;20078;-73
2023/06/20 07:25:40;;;;;;;10.63;8.30;;;27.90;91.20;;;;;;5072898;28;20029;-73
2023/06/20 07:28:06;;;;;;;10.32;7.32;;;28.10;90.70;;;;;;5074513;28;20090;-73
2023/06/20 07:30:32;;;;;;;10.32;7.88;;;28.30;91.00;;;;;;5072985;28;20069;-72
2023/06/20 07:32:58;;;;;;;13.55;7.43;;;28.60;90.50;;;;;;5072441;28;20035;-73
2023/06/20 07:35:23;;;;;;;9.27;7.75;;;28.40;90.00;;;;;;5074408;28;20033;-72
2023/06/20 07:37:49;;;;;;;8.35;7.47;;;28.60;89.60;;;;;;5072885;28;20137;-73
2023/06/20 07:40:15;;;;;;;10.88;8.02;;;28.60;87.40;;;;;;5073927;28;20024;-73
2023/06/20 07:42:40;;;;;;;8.57;7.68;;;28.60;87.10;;;;;;5073669;28;20032;-72
2023/06/20 07:45:06;;;;;;;10.52;8.40;;;28.60;88.50;;;;;;5073336;28;20461;-73
2023/06/20 07:47:32;;;;;;;10.55;7.50;;;28.70;87.50;;;;;;5073988;28;20103;-73
2023/06/20 07:49:58;;;;;;;14.45;8.82;;;28.90;87.50;;;;;;5059665;28;20150;-73
2023/06/20 07:52:23;;;;;;;9.13;7.50;;;29.00;86.20;;;;;;5053802;28;20461;-73
2023/06/20 07:54:50;;;;;;;13.65;8.38;;;29.10;86.20;;;;;;5035921;28;20035;-73
2023/06/20 07:57:15;;;;;;;8.55;7.63;;;28.90;86.50;;;;;;5053778;28;20071;-73
2023/06/20 07:59:41;;;;;;;9.77;8.20;;;28.70;87.20;;;;;;5053788;28;20025;-72
2023/06/20 08:02:06;;;;;;;13.13;8.20;;;28.70;87.40;;;;;;5035927;28;20029;-73
2023/06/20 08:04:32;;;;;;;8.00;7.30;;;28.90;87.80;;;;;;5036386;28;20032;-73
2023/06/20 08:06:58;;;;;;;13.77;7.20;;;29.20;88.70;;;;;;5054802;28;20377;-73
2023/06/20 08:09:23;;;;;;;12.82;7.78;;;29.60;87.10;;;;;;5036786;28;20056;-73
2023/06/20 08:11:49;;;;;;;9.52;7.47;;;30.00;84.60;;;;;;5035974;28;20098;-73
2023/06/20 08:14:16;;;;;;;9.15;7.85;;;30.40;83.80;;;;;;5053390;28;20029;-74
2023/06/20 08:16:42;;;;;;;9.45;7.68;;;30.80;82.30;;;;;;5035826;28;20029;-73
2023/06/20 08:19:08;;;;;;;8.55;7.03;;;30.80;81.30;;;;;;5035796;28;20431;-73
2023/06/20 08:21:33;;;;;;;10.15;7.18;;;30.40;81.70;;;;;;5035625;28;20029;-73
2023/06/20 08:23:59;;;;;;;9.10;7.40;;;30.60;81.00;;;;;;5053545;28;20025;-73
2023/06/20 08:26:24;;;;;;;11.68;7.30;;;30.60;81.00;;;;;;5053575;28;20064;-73
2023/06/20 08:28:50;;;;;;;11.25;7.13;;;30.70;77.80;;;;;;5053449;28;20099;-73
2023/06/20 08:31:15;;;;;;;9.95;7.30;;;30.90;79.70;;;;;;5053585;28;20048;-73
2023/06/20 08:33:41;;;;;;;12.55;7.53;;;31.20;79.40;;;;;;5053493;28;20033;-73
2023/06/20 08:36:09;;;;;;;8.85;7.13;;;31.30;77.40;;;;;;5035574;28;20078;-73
2023/06/20 08:38:35;;;;;;;7.95;7.15;;;31.00;77.40;;;;;;5035462;28;20381;-73
2023/06/20 08:41:02;;;;;;;10.82;6.95;;;31.10;77.10;;;;;;5053347;28;20029;-73
2023/06/20 08:43:29;;;;;;;10.45;7.22;;;31.30;76.10;;;;;;5035435;28;20033;-73
2023/06/20 08:45:55;;;;;;;10.38;7.28;;;31.60;75.50;;;;;;5035625;28;20075;-73
2023/06/20 08:48:26;;;;;;;10.70;7.25;;;32.20;75.10;;;;;;5035299;28;20431;-73
2023/06/20 08:50:52;;;;;;;11.27;6.55;;;31.50;72.30;;;;;;5035840;28;20025;-73
2023/06/20 08:53:18;;;;;;;8.00;7.07;;;31.10;73.60;;;;;;5035213;28;20472;-73
2023/06/20 08:55:45;;;;;;;11.73;7.15;;;31.00;74.40;;;;;;5053001;28;20449;-73
2023/06/20 08:58:11;;;;;;;16.90;7.47;;;30.80;75.10;;;;;;5052957;28;20033;-73
2023/06/20 09:00:38;;;;;;;7.00;6.15;;;30.70;75.70;;;;;;5054105;28;20031;-73
2023/06/20 09:03:04;;;;;;;11.07;7.72;;;31.00;76.00;;;;;;5057319;28;20067;-73
2023/06/20 09:05:43;;;;;;;8.10;6.55;;;31.40;74.70;;;;;;5039558;28;20065;-73
2023/06/20 09:08:13;;;;;;;7.78;6.95;;;32.00;73.00;;;;;;5039041;28;20124;-73
2023/06/20 09:10:39;;;;;;;10.18;7.20;;;32.30;70.20;;;;;;5039065;28;20025;-73
2023/06/20 09:13:06;;;;;;;12.77;6.78;;;32.10;68.80;;;;;;5038986;28;20029;-73
2023/06/20 09:15:33;;;;;;;7.47;6.78;;;32.60;69.00;;;;;;5038949;28;20128;-73
2023/06/20 09:18:00;;;;;;;7.40;6.60;;;32.50;70.20;;;;;;5056797;28;20029;-73
2023/06/20 09:20:29;;;;;;;14.50;6.88;;;32.50;69.80;;;;;;5039031;28;20053;-73
2023/06/20 09:22:54;;;;;;;7.75;7.05;;;32.90;67.80;;;;;;5038891;28;20033;-73
2023/06/20 09:25:22;;;;;;;7.13;6.50;;;33.20;65.90;;;;;;5056800;28;20431;-73
2023/06/20 09:27:48;;;;;;;6.95;6.28;;;33.30;67.10;;;;;;5038943;28;20036;-73
2023/06/20 09:30:14;;;;;;;7.03;6.15;;;33.60;64.60;;;;;;5038592;28;20032;-73
2023/06/20 09:32:40;;;;;;;8.10;6.68;;;33.10;63.60;;;;;;5056480;28;20028;-73
2023/06/20 09:35:12;;;;;;;7.65;6.68;;;33.10;63.10;;;;;;5056510;28;20029;-73
2023/06/20 09:37:43;;;;;;;7.13;6.38;;;33.10;62.70;;;;;;5038949;28;20371;-73
2023/06/20 09:40:14;;;;;;;6.97;6.38;;;33.90;61.90;;;;;;5056046;28;20025;-73
2023/06/20 09:42:41;;;;;;;9.60;6.38;;;34.80;61.20;;;;;;5038489;28;20078;-73
2023/06/20 09:45:12;;;;;;;8.50;6.43;;;34.90;58.90;;;;;;5056363;28;20040;-73
2023/06/20 09:47:40;;;;;;;9.77;6.82;;;34.80;57.10;;;;;;5039275;28;20033;-73
2023/06/20 09:50:16;;;;;;;13.07;6.53;;;34.70;59.00;;;;;;5056462;28;20116;-73
2023/06/20 09:52:54;;;;;;;9.68;6.57;;;34.90;57.50;;;;;;5056406;28;20119;-73
2023/06/20 09:55:23;;;;;;;9.00;6.65;;;34.30;57.30;;;;;;5056344;28;20099;-73
2023/06/20 09:57:54;;;;;;;8.05;6.53;;;34.10;57.60;;;;;;5056065;28;20021;-73
2023/06/20 10:00:22;;;;;;;8.82;6.47;;;34.30;57.80;;;;;;5056109;28;20484;-73
2023/06/20 10:02:48;;;;;;;10.93;6.72;;;34.40;57.20;;;;;;5055956;28;20036;-73
2023/06/20 10:05:15;;;;;;;11.75;6.40;;;34.40;57.20;;;;;;5055890;28;20108;-73
2023/06/20 10:07:43;;;;;;;8.48;6.35;;;34.10;57.40;;;;;;5038219;28;20025;-73
2023/06/20 10:10:13;;;;;;;10.03;6.50;;;34.50;58.10;;;;;;5055805;28;20025;-73
2023/06/20 10:12:41;;;;;;;10.13;6.15;;;34.50;57.80;;;;;;5036813;28;20024;-73
2023/06/20 10:15:08;;;;;;;6.97;6.32;;;35.00;57.30;;;;;;5055740;28;20033;-73
2023/06/20 10:17:39;;;;;;;8.18;6.68;;;35.40;56.30;;;;;;5038150;28;20025;-73
2023/06/20 10:20:09;;;;;;;7.95;6.45;;;35.60;55.20;;;;;;5055696;28;20017;-73
2023/06/20 10:22:41;;;;;;;7.82;6.97;;;35.70;55.50;;;;;;5055777;28;20037;-74
2023/06/20 10:25:13;;;;;;;10.30;6.53;;;35.60;55.30;;;;;;5055359;28;20029;-73
2023/06/20 10:27:43;;;;;;;11.52;6.82;;;35.60;55.60;;;;;;5055633;28;20029;-73
2023/06/20 10:30:13;;;;;;;8.40;6.70;;;34.90;55.10;;;;;;5055363;28;20029;-73
2023/06/20 10:33:10;;;;;;;8.88;6.82;;;34.40;56.20;;;;;;5055578;28;20544;-73
2023/06/20 10:35:46;;;;;;;7.97;7.20;;;33.80;56.10;;;;;;5055227;28;20028;-73
2023/06/20 10:38:12;;;;;;;10.15;7.40;;;33.80;57.50;;;;;;5037621;28;20137;-73
2023/06/20 10:40:38;;;;;;;7.32;6.38;;;33.60;58.10;;;;;;5037445;28;20500;-73
2023/06/20 10:43:18;;;;;;;9.88;7.05;;;33.80;57.90;;;;;;5037521;28;20032;-73
2023/06/20 10:45:53;;;;;;;9.82;6.93;;;34.20;58.60;;;;;;5055185;28;20020;-73
2023/06/20 10:48:20;;;;;;;6.97;6.28;;;34.50;58.00;;;;;;5055126;28;20048;-73
2023/06/20 10:50:46;;;;;;;8.77;7.00;;;34.50;56.50;;;;;;5055020;28;20029;-73
2023/06/20 10:53:13;;;;;;;8.45;6.30;;;34.10;57.30;;;;;;5036995;28;20036;-74
2023/06/20 10:55:39;;;;;;;10.60;6.97;;;34.50;58.30;;;;;;5054789;28;20369;-73
2023/06/20 10:58:05;;;;;;;11.77;6.95;;;35.10;56.30;;;;;;5055246;28;20059;-74
2023/06/20 11:00:30;;;;;;;7.43;6.72;;;35.80;54.70;;;;;;5054485;28;20025;-73
2023/06/20 11:02:57;;;;;;;8.63;6.80;;;35.70;54.10;;;;;;5054786;28;20028;-73
2023/06/20 11:05:27;;;;;;;7.45;6.32;;;35.60;53.60;;;;;;5054477;28;20078;-73
2023/06/20 11:08:03;;;;;;;8.55;6.63;;;35.60;54.00;;;;;;5054650;28;20036;-74
2023/06/20 11:10:33;;;;;;;10.15;6.65;;;35.80;53.60;;;;;;5054758;28;20111;-73
2023/06/20 11:13:03;;;;;;;7.15;6.45;;;35.90;52.60;;;;;;5036681;28;20059;-73
2023/06/20 11:15:31;;;;;;;6.82;6.18;;;35.70;53.20;;;;;;5054661;28;20116;-73
2023/06/20 11:18:00;;;;;;;10.50;6.27;;;35.80;53.70;;;;;;5054806;28;20025;-73
2023/06/20 11:20:26;;;;;;;9.35;6.68;;;35.90;53.20;;;;;;5036754;28;20296;-73
2023/06/20 11:22:53;;;;;;;7.68;6.75;;;36.50;53.20;;;;;;5036255;28;20064;-73
2023/06/20 11:25:29;;;;;;;7.93;7.22;;;36.30;52.40;;;;;;5036489;28;20033;-73
2023/06/20 11:28:03;;;;;;;9.23;6.88;;;35.70;52.90;;;;;;5054656;28;20104;-74
2023/06/20 11:30:30;;;;;;;7.68;6.55;;;36.00;53.40;;;;;;5054318;28;20155;-73
2023/06/20 11:33:00;;;;;;;9.05;6.28;;;36.40;52.30;;;;;;5036576;28;20040;-73
2023/06/20 11:35:51;;;;;;;7.18;6.10;;;35.70;52.70;;;;;;5036242;28;20036;-73
2023/06/20 11:38:21;;;;;;;7.72;6.43;;;36.30;52.20;;;;;;5036069;28;20028;-73
2023/06/20 11:41:08;;;;;;;7.43;5.78;;;37.00;52.00;;;;;;5054089;28;20036;-73
2023/06/20 11:43:39;;;;;;;7.37;6.07;;;37.10;51.40;;;;;;5053371;28;20041;-74
2023/06/20 11:46:06;;;;;;;12.38;6.78;;;37.30;52.40;;;;;;5054157;28;20025;-73
2023/06/20 11:48:31;;;;;;;10.23;5.88;;;37.40;50.60;;;;;;5035777;28;20060;-73
2023/06/20 11:51:02;;;;;;;7.03;6.43;;;37.10;50.40;;;;;;5053986;28;20099;-73
2023/06/20 11:53:35;;;;;;;6.88;6.15;;;37.00;50.90;;;;;;5053652;28;20400;-73
2023/06/20 11:56:03;;;;;;;6.68;6.00;;;37.10;50.80;;;;;;5053970;28;20096;-73
2023/06/20 11:58:35;;;;;;;9.60;6.07;;;37.10;51.00;;;;;;5053760;28;20020;-73
2023/06/20 12:01:09;;;;;;;8.82;6.13;;;36.30;50.70;;;;;;5053441;28;20321;-73
2023/06/20 12:03:36;;;;;;;9.98;6.07;;;35.40;52.50;;;;;;5035625;28;20032;-73
2023/06/20 12:06:02;;;;;;;8.18;6.68;;;35.10;53.70;;;;;;5053697;28;20040;-73
2023/06/20 12:08:34;;;;;;;8.43;5.93;;;36.10;53.20;;;;;;5035965;28;20029;-73
2023/06/20 12:11:02;;;;;;;7.35;6.53;;;36.70;52.00;;;;;;5036257;28;20025;-73
2023/06/20 12:13:28;;;;;;;8.48;6.22;;;37.50;50.80;;;;;;5035899;28;20037;-73
2023/06/20 12:15:54;;;;;;;9.40;6.43;;;38.30;50.00;;;;;;5035496;28;20029;-74
2023/06/20 12:18:20;;;;;;;8.02;6.20;;;38.50;49.30;;;;;;5053943;28;20021;-73
2023/06/20 12:20:46;;;;;;;6.78;6.28;;;37.20;49.90;;;;;;5053635;28;20100;-73
2023/06/20 12:23:13;;;;;;;7.43;6.57;;;36.60;50.80;;;;;;5053537;28;20040;-74
2023/06/20 12:25:38;;;;;;;7.35;5.60;;;36.90;50.30;;;;;;5053564;28;20025;-73
2023/06/20 12:28:04;;;;;;;7.00;6.40;;;36.50;50.40;;;;;;5053865;28;20037;-73
2023/06/20 12:30:33;;;;;;;6.82;6.25;;;36.40;51.00;;;;;;5035898;28;20476;-73
2023/06/20 12:33:02;;;;;;;6.72;6.07;;;36.70;50.20;;;;;;5053544;28;20033;-73
2023/06/20 12:35:29;;;;;;;6.57;6.07;;;36.60;50.10;;;;;;5053950;28;20029;-73
2023/06/20 12:37:54;;;;;;;7.68;6.90;;;36.50;49.80;;;;;;5057242;28;20064;-73
2023/06/20 12:40:20;;;;;;;13.15;6.53;;;36.50;50.00;;;;;;5057529;28;20117;-73
2023/06/20 12:42:46;;;;;;;7.57;6.72;;;36.30;50.20;;;;;;5057465;28;20028;-73